Terminal Aerodrome Forecast
Issued by NWS

Home | Current Version | Previous Version | Text Only | Print | Product List | Glossary On
Versions: 1 2 3 4 5 6 7 8 9 10 11 12 13 14 15 16 17 18
000
FTUS43 KEAX 260400 AAA
TAFSTJ
TAF AMD
KSTJ 260403Z 2604/2624 35003KT P6SM BKN035
     FM260600 22006KT P6SM SCT035
     FM261200 24012KT P6SM SCT250
     FM261800 30015G22KT P6SM SKC=

USA.gov is the U.S. government's official web portal to all federal, state and local government web resources and services.